sensor_id;sensor_type;location;lat;lon;timestamp;pressure;altitude;pressure_sealevel;temperature;humidity
27334;BME280;14817;57.104;-2.094;2023-07-29T00:01:21;97188.22;;;15.00;100.00
27334;BME280;14817;57.104;-2.094;2023-07-29T00:03:48;97183.06;;;14.94;100.00
27334;BME280;14817;57.104;-2.094;2023-07-29T00:06:15;97164.16;;;14.88;100.00
27334;BME280;14817;57.104;-2.094;2023-07-29T00:08:42;97144.50;;;14.88;100.00
27334;BME280;14817;57.104;-2.094;2023-07-29T00:11:09;97102.19;;;14.88;100.00
27334;BME280;14817;57.104;-2.094;2023-07-29T00:13:36;97070.94;;;14.87;100.00
27334;BME280;14817;57.104;-2.094;2023-07-29T00:16:03;96998.47;;;14.86;100.00
27334;BME280;14817;57.104;-2.094;2023-07-29T00:18:29;96902.28;;;14.81;100.00
27334;BME280;14817;57.104;-2.094;2023-07-29T00:20:57;96861.34;;;14.84;100.00
27334;BME280;14817;57.104;-2.094;2023-07-29T00:23:24;96784.31;;;14.83;100.00
27334;BME280;14817;57.104;-2.094;2023-07-29T00:25:51;96727.22;;;14.81;100.00
27334;BME280;14817;57.104;-2.094;2023-07-29T00:28:18;96706.47;;;14.72;100.00
27334;BME280;14817;57.104;-2.094;2023-07-29T00:30:49;96688.16;;;14.74;100.00
27334;BME280;14817;57.104;-2.094;2023-07-29T00:33:16;96659.88;;;14.76;100.00
27334;BME280;14817;57.104;-2.094;2023-07-29T00:35:43;96638.63;;;14.69;100.00
27334;BME280;14817;57.104;-2.094;2023-07-29T00:38:09;96590.41;;;14.73;100.00
27334;BME280;14817;57.104;-2.094;2023-07-29T00:40:36;96620.56;;;14.70;100.00
27334;BME280;14817;57.104;-2.094;2023-07-29T00:43:04;96636.75;;;14.65;100.00
27334;BME280;14817;57.104;-2.094;2023-07-29T00:45:32;96663.16;;;14.63;100.00
27334;BME280;14817;57.104;-2.094;2023-07-29T00:47:59;96680.94;;;14.64;100.00
27334;BME280;14817;57.104;-2.094;2023-07-29T00:50:28;96703.03;;;14.56;100.00
27334;BME280;14817;57.104;-2.094;2023-07-29T00:52:59;96722.41;;;14.58;100.00
27334;BME280;14817;57.104;-2.094;2023-07-29T00:55:26;96723.22;;;14.58;100.00
27334;BME280;14817;57.104;-2.094;2023-07-29T00:57:53;96737.47;;;14.59;100.00
27334;BME280;14817;57.104;-2.094;2023-07-29T01:00:21;96717.81;;;14.53;100.00
27334;BME280;14817;57.104;-2.094;2023-07-29T01:02:49;96728.03;;;14.51;100.00
27334;BME280;14817;57.104;-2.094;2023-07-29T01:05:17;96736.09;;;14.46;100.00
27334;BME280;14817;57.104;-2.094;2023-07-29T01:13:06;96740.13;;;14.48;100.00
27334;BME280;14817;57.104;-2.094;2023-07-29T01:15:44;96756.28;;;14.48;100.00
27334;BME280;14817;57.104;-2.094;2023-07-29T01:18:19;96759.78;;;14.44;100.00
27334;BME280;14817;57.104;-2.094;2023-07-29T01:20:47;96770.84;;;14.47;100.00
27334;BME280;14817;57.104;-2.094;2023-07-29T01:23:15;96792.66;;;14.41;100.00
27334;BME280;14817;57.104;-2.094;2023-07-29T01:25:42;96803.41;;;14.36;100.00
27334;BME280;14817;57.104;-2.094;2023-07-29T01:28:11;96820.63;;;14.40;100.00
27334;BME280;14817;57.104;-2.094;2023-07-29T01:30:40;96833.28;;;14.39;100.00
27334;BME280;14817;57.104;-2.094;2023-07-29T01:33:16;96839.78;;;14.38;100.00
27334;BME280;14817;57.104;-2.094;2023-07-29T01:35:52;96846.25;;;14.42;100.00
27334;BME280;14817;57.104;-2.094;2023-07-29T01:38:27;96852.69;;;14.41;100.00
27334;BME280;14817;57.104;-2.094;2023-07-29T01:40:55;96857.00;;;14.42;100.00
27334;BME280;14817;57.104;-2.094;2023-07-29T01:43:22;96858.34;;;14.45;100.00
27334;BME280;14817;57.104;-2.094;2023-07-29T01:45:52;96863.72;;;14.45;100.00
27334;BME280;14817;57.104;-2.094;2023-07-29T01:48:19;96873.66;;;14.44;100.00
27334;BME280;14817;57.104;-2.094;2023-07-29T01:50:48;96888.22;;;14.43;100.00
27334;BME280;14817;57.104;-2.094;2023-07-29T01:53:15;96886.63;;;14.42;100.00
27334;BME280;14817;57.104;-2.094;2023-07-29T01:55:42;96892.81;;;14.43;100.00
27334;BME280;14817;57.104;-2.094;2023-07-29T01:58:09;96902.78;;;14.42;100.00
27334;BME280;14817;57.104;-2.094;2023-07-29T02:00:37;96893.59;;;14.43;100.00
27334;BME280;14817;57.104;-2.094;2023-07-29T02:03:04;96900.34;;;14.46;100.00
27334;BME280;14817;57.104;-2.094;2023-07-29T02:05:31;96900.88;;;14.48;100.00
27334;BME280;14817;57.104;-2.094;2023-07-29T02:07:58;96899.28;;;14.47;100.00
27334;BME280;14817;57.104;-2.094;2023-07-29T02:10:25;96901.16;;;14.52;100.00
27334;BME280;14817;57.104;-2.094;2023-07-29T02:12:51;96891.72;;;14.54;100.00
27334;BME280;14817;57.104;-2.094;2023-07-29T02:15:18;96897.13;;;14.54;100.00
27334;BME280;14817;57.104;-2.094;2023-07-29T02:17:45;96902.75;;;14.47;100.00
27334;BME280;14817;57.104;-2.094;2023-07-29T02:20:12;96899.53;;;14.50;100.00
27334;BME280;14817;57.104;-2.094;2023-07-29T02:22:39;96904.91;;;14.50;100.00
27334;BME280;14817;57.104;-2.094;2023-07-29T02:25:06;96894.13;;;14.50;100.00
27334;BME280;14817;57.104;-2.094;2023-07-29T02:27:33;96898.72;;;14.45;100.00
27334;BME280;14817;57.104;-2.094;2023-07-29T02:30:00;96911.09;;;14.41;100.00
27334;BME280;14817;57.104;-2.094;2023-07-29T02:32:27;96908.16;;;14.42;100.00
27334;BME280;14817;57.104;-2.094;2023-07-29T02:34:54;96901.13;;;14.46;100.00
27334;BME280;14817;57.104;-2.094;2023-07-29T02:37:21;96903.28;;;14.44;100.00
27334;BME280;14817;57.104;-2.094;2023-07-29T02:39:48;96903.28;;;14.44;100.00
27334;BME280;14817;57.104;-2.094;2023-07-29T02:42:15;96898.16;;;14.38;100.00
27334;BME280;14817;57.104;-2.094;2023-07-29T02:44:42;96899.25;;;14.37;100.00
27334;BME280;14817;57.104;-2.094;2023-07-29T02:47:09;96900.59;;;14.34;100.00
27334;BME280;14817;57.104;-2.094;2023-07-29T02:49:36;96901.41;;;14.29;100.00
27334;BME280;14817;57.104;-2.094;2023-07-29T02:52:03;96898.66;;;14.24;100.00
27334;BME280;14817;57.104;-2.094;2023-07-29T02:54:30;96904.31;;;14.23;100.00
27334;BME280;14817;57.104;-2.094;2023-07-29T02:56:56;96904.84;;;14.15;100.00
27334;BME280;14817;57.104;-2.094;2023-07-29T02:59:23;96906.41;;;14.00;100.00
27334;BME280;14817;57.104;-2.094;2023-07-29T03:01:50;96905.63;;;14.10;100.00
27334;BME280;14817;57.104;-2.094;2023-07-29T03:04:20;96906.16;;;14.07;100.00
27334;BME280;14817;57.104;-2.094;2023-07-29T03:06:47;96904.28;;;14.07;100.00
27334;BME280;14817;57.104;-2.094;2023-07-29T03:09:15;96897.25;;;14.01;100.00
27334;BME280;14817;57.104;-2.094;2023-07-29T03:11:41;96890.56;;;14.04;100.00
27334;BME280;14817;57.104;-2.094;2023-07-29T03:14:08;96888.94;;;14.08;100.00
27334;BME280;14817;57.104;-2.094;2023-07-29T03:16:35;96899.19;;;14.16;100.00
27334;BME280;14817;57.104;-2.094;2023-07-29T03:19:02;96898.94;;;14.13;100.00
27334;BME280;14817;57.104;-2.094;2023-07-29T03:21:29;96897.84;;;14.14;100.00
27334;BME280;14817;57.104;-2.094;2023-07-29T03:23:56;96901.63;;;14.13;100.00
27334;BME280;14817;57.104;-2.094;2023-07-29T03:26:24;96903.22;;;14.14;100.00
27334;BME280;14817;57.104;-2.094;2023-07-29T03:28:52;96903.22;;;14.19;100.00
27334;BME280;14817;57.104;-2.094;2023-07-29T03:31:19;96902.16;;;14.15;100.00
27334;BME280;14817;57.104;-2.094;2023-07-29T03:33:46;96917.22;;;14.21;100.00
27334;BME280;14817;57.104;-2.094;2023-07-29T03:36:13;96915.28;;;14.06;100.00
27334;BME280;14817;57.104;-2.094;2023-07-29T03:38:41;96918.31;;;14.20;100.00
27334;BME280;14817;57.104;-2.094;2023-07-29T03:41:08;96913.97;;;14.19;100.00
27334;BME280;14817;57.104;-2.094;2023-07-29T03:43:35;96924.50;;;14.15;100.00
27334;BME280;14817;57.104;-2.094;2023-07-29T03:46:02;96928.00;;;14.21;100.00
27334;BME280;14817;57.104;-2.094;2023-07-29T03:48:29;96920.72;;;14.11;100.00
27334;BME280;14817;57.104;-2.094;2023-07-29T03:50:58;96920.16;;;14.14;100.00
27334;BME280;14817;57.104;-2.094;2023-07-29T03:53:25;96923.16;;;14.13;100.00
27334;BME280;14817;57.104;-2.094;2023-07-29T03:55:52;96914.53;;;14.11;100.00
27334;BME280;14817;57.104;-2.094;2023-07-29T03:58:20;96911.28;;;14.14;100.00
27334;BME280;14817;57.104;-2.094;2023-07-29T04:00:48;96909.16;;;14.11;100.00
27334;BME280;14817;57.104;-2.094;2023-07-29T04:03:15;96907.75;;;14.08;100.00
27334;BME280;14817;57.104;-2.094;2023-07-29T04:05:42;96900.25;;;14.10;100.00
27334;BME280;14817;57.104;-2.094;2023-07-29T04:08:09;96902.16;;;14.15;100.00
27334;BME280;14817;57.104;-2.094;2023-07-29T04:10:37;96903.22;;;14.19;100.00
27334;BME280;14817;57.104;-2.094;2023-07-29T04:13:04;96898.38;;;14.21;100.00
27334;BME280;14817;57.104;-2.094;2023-07-29T04:15:31;96903.78;;;14.21;100.00
27334;BME280;14817;57.104;-2.094;2023-07-29T04:17:58;96902.72;;;14.22;100.00
27334;BME280;14817;57.104;-2.094;2023-07-29T04:20:25;96897.63;;;14.25;100.00
27334;BME280;14817;57.104;-2.094;2023-07-29T04:22:52;96897.88;;;14.24;100.00
27334;BME280;14817;57.104;-2.094;2023-07-29T04:25:19;96908.63;;;14.29;100.00
27334;BME280;14817;57.104;-2.094;2023-07-29T04:27:46;96904.09;;;14.29;100.00
27334;BME280;14817;57.104;-2.094;2023-07-29T04:30:12;96900.06;;;14.32;100.00
27334;BME280;14817;57.104;-2.094;2023-07-29T04:32:39;96898.97;;;14.28;100.00
27334;BME280;14817;57.104;-2.094;2023-07-29T04:35:07;96900.03;;;14.37;100.00
27334;BME280;14817;57.104;-2.094;2023-07-29T04:37:36;96885.25;;;14.35;100.00
27334;BME280;14817;57.104;-2.094;2023-07-29T04:40:03;96893.31;;;14.40;100.00
27334;BME280;14817;57.104;-2.094;2023-07-29T04:42:30;96895.22;;;14.39;100.00
27334;BME280;14817;57.104;-2.094;2023-07-29T04:44:57;96889.28;;;14.32;100.00
27334;BME280;14817;57.104;-2.094;2023-07-29T04:47:24;96893.03;;;14.31;100.00
27334;BME280;14817;57.104;-2.094;2023-07-29T04:49:53;96890.38;;;14.36;100.00
27334;BME280;14817;57.104;-2.094;2023-07-29T04:52:20;96895.22;;;14.34;100.00
27334;BME280;14817;57.104;-2.094;2023-07-29T04:54:48;96893.59;;;14.38;100.00
27334;BME280;14817;57.104;-2.094;2023-07-29T04:57:15;96889.03;;;14.44;100.00
27334;BME280;14817;57.104;-2.094;2023-07-29T04:59:42;96887.13;;;14.39;100.00
27334;BME280;14817;57.104;-2.094;2023-07-29T05:02:08;96886.31;;;14.44;100.00
27334;BME280;14817;57.104;-2.094;2023-07-29T05:04:35;96873.16;;;14.47;100.00
27334;BME280;14817;57.104;-2.094;2023-07-29T05:07:02;96882.28;;;14.46;100.00
27334;BME280;14817;57.104;-2.094;2023-07-29T05:09:29;96886.06;;;14.45;100.00
27334;BME280;14817;57.104;-2.094;2023-07-29T05:11:56;96888.75;;;14.50;100.00
27334;BME280;14817;57.104;-2.094;2023-07-29T05:14:23;96883.66;;;14.49;100.00
27334;BME280;14817;57.104;-2.094;2023-07-29T05:16:50;96882.31;;;14.52;100.00
27334;BME280;14817;57.104;-2.094;2023-07-29T05:19:18;96886.34;;;14.49;100.00
27334;BME280;14817;57.104;-2.094;2023-07-29T05:21:44;96878.53;;;14.53;100.00
27334;BME280;14817;57.104;-2.094;2023-07-29T05:24:12;96880.97;;;14.49;100.00
27334;BME280;14817;57.104;-2.094;2023-07-29T05:26:38;96876.94;;;14.52;100.00
27334;BME280;14817;57.104;-2.094;2023-07-29T05:29:05;96880.16;;;14.54;100.00
27334;BME280;14817;57.104;-2.094;2023-07-29T05:31:33;96866.19;;;14.57;100.00
27334;BME280;14817;57.104;-2.094;2023-07-29T05:34:00;96874.53;;;14.55;100.00
27334;BME280;14817;57.104;-2.094;2023-07-29T05:36:27;96873.75;;;14.60;100.00
27334;BME280;14817;57.104;-2.094;2023-07-29T05:38:54;96859.19;;;14.61;100.00
27334;BME280;14817;57.104;-2.094;2023-07-29T05:41:21;96860.53;;;14.58;100.00
27334;BME280;14817;57.104;-2.094;2023-07-29T05:43:48;96857.06;;;14.68;100.00
27334;BME280;14817;57.104;-2.094;2023-07-29T05:46:14;96860.53;;;14.68;100.00
27334;BME280;14817;57.104;-2.094;2023-07-29T05:48:41;96857.31;;;14.72;100.00
27334;BME280;14817;57.104;-2.094;2023-07-29T05:51:08;96853.81;;;14.71;100.00
27334;BME280;14817;57.104;-2.094;2023-07-29T05:53:35;96854.88;;;14.80;100.00
27334;BME280;14817;57.104;-2.094;2023-07-29T05:56:02;96858.13;;;14.77;100.00
27334;BME280;14817;57.104;-2.094;2023-07-29T05:58:29;96859.19;;;14.81;100.00
27334;BME280;14817;57.104;-2.094;2023-07-29T06:00:58;96850.03;;;14.82;100.00
27334;BME280;14817;57.104;-2.094;2023-07-29T06:03:25;96861.88;;;14.81;100.00
27334;BME280;14817;57.104;-2.094;2023-07-29T06:05:52;96851.63;;;14.88;100.00
27334;BME280;14817;57.104;-2.094;2023-07-29T06:08:20;96846.25;;;14.88;100.00
27334;BME280;14817;57.104;-2.094;2023-07-29T06:10:47;96857.59;;;14.85;100.00
27334;BME280;14817;57.104;-2.094;2023-07-29T06:13:14;96857.31;;;14.92;100.00
27334;BME280;14817;57.104;-2.094;2023-07-29T06:15:41;96862.69;;;14.87;100.00
27334;BME280;14817;57.104;-2.094;2023-07-29T06:18:08;96861.88;;;14.86;100.00
27334;BME280;14817;57.104;-2.094;2023-07-29T06:20:35;96849.50;;;14.96;100.00
27334;BME280;14817;57.104;-2.094;2023-07-29T06:23:02;96862.97;;;14.90;100.00
27334;BME280;14817;57.104;-2.094;2023-07-29T06:25:29;96862.94;;;15.01;100.00
27334;BME280;14817;57.104;-2.094;2023-07-29T06:27:56;96856.47;;;15.12;100.00
27334;BME280;14817;57.104;-2.094;2023-07-29T06:30:24;96861.84;;;15.22;100.00
27334;BME280;14817;57.104;-2.094;2023-07-29T06:32:51;96874.50;;;15.27;100.00
27334;BME280;14817;57.104;-2.094;2023-07-29T06:35:18;96873.69;;;15.37;100.00
27334;BME280;14817;57.104;-2.094;2023-07-29T06:37:45;96893.09;;;15.39;100.00
27334;BME280;14817;57.104;-2.094;2023-07-29T06:40:12;96903.88;;;15.39;100.00
27334;BME280;14817;57.104;-2.094;2023-07-29T06:42:39;96907.84;;;15.67;100.00
27334;BME280;14817;57.104;-2.094;2023-07-29T06:45:06;96931.84;;;15.79;100.00
27334;BME280;14817;57.104;-2.094;2023-07-29T06:47:33;96960.19;;;15.81;100.00
27334;BME280;14817;57.104;-2.094;2023-07-29T06:50:00;96991.72;;;15.65;100.00
27334;BME280;14817;57.104;-2.094;2023-07-29T06:52:27;97005.22;;;15.81;100.00
27334;BME280;14817;57.104;-2.094;2023-07-29T06:54:54;97021.38;;;15.91;100.00
27334;BME280;14817;57.104;-2.094;2023-07-29T06:57:21;97037.31;;;15.92;100.00
27334;BME280;14817;57.104;-2.094;2023-07-29T06:59:48;97054.84;;;16.05;100.00
27334;BME280;14817;57.104;-2.094;2023-07-29T07:02:15;97067.53;;;16.00;100.00
27334;BME280;14817;57.104;-2.094;2023-07-29T07:04:41;97076.97;;;16.02;100.00
27334;BME280;14817;57.104;-2.094;2023-07-29T07:07:08;97084.50;;;16.21;100.00
27334;BME280;14817;57.104;-2.094;2023-07-29T07:09:35;97096.38;;;16.25;100.00
27334;BME280;14817;57.104;-2.094;2023-07-29T07:12:02;97107.97;;;16.25;100.00
27334;BME280;14817;57.104;-2.094;2023-07-29T07:14:29;97127.38;;;16.38;100.00
27334;BME280;14817;57.104;-2.094;2023-07-29T07:16:56;97135.28;;;16.13;100.00
27334;BME280;14817;57.104;-2.094;2023-07-29T07:19:22;97135.50;;;16.17;100.00
27334;BME280;14817;57.104;-2.094;2023-07-29T07:21:49;97147.13;;;16.12;100.00
27334;BME280;14817;57.104;-2.094;2023-07-29T07:24:16;97151.19;;;16.20;100.00
27334;BME280;14817;57.104;-2.094;2023-07-29T07:26:43;97166.56;;;16.04;100.00
27334;BME280;14817;57.104;-2.094;2023-07-29T07:29:10;97162.81;;;15.90;100.00
27334;BME280;14817;57.104;-2.094;2023-07-29T07:31:37;97143.09;;;16.00;100.00
27334;BME280;14817;57.104;-2.094;2023-07-29T07:34:03;97147.44;;;15.75;100.00
27334;BME280;14817;57.104;-2.094;2023-07-29T07:36:30;97135.78;;;15.69;100.00
27334;BME280;14817;57.104;-2.094;2023-07-29T07:38:57;97106.97;;;15.85;100.00
27334;BME280;14817;57.104;-2.094;2023-07-29T07:41:24;97099.66;;;15.86;100.00
27334;BME280;14817;57.104;-2.094;2023-07-29T07:43:51;97095.84;;;16.02;100.00
27334;BME280;14817;57.104;-2.094;2023-07-29T07:46:18;97098.56;;;16.18;100.00
27334;BME280;14817;57.104;-2.094;2023-07-29T07:48:45;97104.47;;;16.15;100.00
27334;BME280;14817;57.104;-2.094;2023-07-29T07:51:12;97116.13;;;16.05;100.00
27334;BME280;14817;57.104;-2.094;2023-07-29T07:53:39;97136.63;;;16.06;100.00
27334;BME280;14817;57.104;-2.094;2023-07-29T07:56:07;97139.59;;;15.79;100.00
27334;BME280;14817;57.104;-2.094;2023-07-29T07:58:34;97133.91;;;15.96;100.00
27334;BME280;14817;57.104;-2.094;2023-07-29T08:01:03;97134.72;;;16.06;100.00
27334;BME280;14817;57.104;-2.094;2023-07-29T08:03:30;97135.25;;;16.08;100.00
27334;BME280;14817;57.104;-2.094;2023-07-29T08:05:57;97133.63;;;16.23;100.00
27334;BME280;14817;57.104;-2.094;2023-07-29T08:08:25;97134.47;;;16.13;100.00
27334;BME280;14817;57.104;-2.094;2023-07-29T08:10:56;97141.47;;;16.14;100.00
27334;BME280;14817;57.104;-2.094;2023-07-29T08:13:23;97132.25;;;16.46;100.00
27334;BME280;14817;57.104;-2.094;2023-07-29T08:15:51;97145.97;;;16.60;100.00
27334;BME280;14817;57.104;-2.094;2023-07-29T08:18:18;97152.97;;;16.66;100.00
27334;BME280;14817;57.104;-2.094;2023-07-29T08:20:54;97154.59;;;16.77;100.00
27334;BME280;14817;57.104;-2.094;2023-07-29T08:23:21;97158.09;;;16.88;100.00
27334;BME280;14817;57.104;-2.094;2023-07-29T08:25:55;97163.56;;;17.27;100.00
27334;BME280;14817;57.104;-2.094;2023-07-29T08:28:23;97178.34;;;17.45;100.00
27334;BME280;14817;57.104;-2.094;2023-07-29T08:30:50;97221.25;;;17.12;100.00
27334;BME280;14817;57.104;-2.094;2023-07-29T08:33:17;97243.97;;;17.11;100.00
27334;BME280;14817;57.104;-2.094;2023-07-29T08:35:43;97255.75;;;17.41;100.00
27334;BME280;14817;57.104;-2.094;2023-07-29T08:38:10;97265.31;;;17.13;100.00
27334;BME280;14817;57.104;-2.094;2023-07-29T08:40:37;97277.16;;;17.27;100.00
27334;BME280;14817;57.104;-2.094;2023-07-29T08:43:07;97284.59;;;16.86;100.00
27334;BME280;14817;57.104;-2.094;2023-07-29T08:45:35;97282.91;;;17.00;100.00
27334;BME280;14817;57.104;-2.094;2023-07-29T08:48:05;97274.25;;;17.08;100.00
27334;BME280;14817;57.104;-2.094;2023-07-29T08:50:33;97283.47;;;16.61;100.00
27334;BME280;14817;57.104;-2.094;2023-07-29T08:53:03;97277.28;;;16.20;100.00
27334;BME280;14817;57.104;-2.094;2023-07-29T08:55:30;97232.47;;;16.24;100.00
27334;BME280;14817;57.104;-2.094;2023-07-29T08:58:00;97187.38;;;16.04;100.00
27334;BME280;14817;57.104;-2.094;2023-07-29T09:00:27;97109.63;;;16.16;100.00
27334;BME280;14817;57.104;-2.094;2023-07-29T09:02:54;97069.94;;;16.11;100.00
27334;BME280;14817;57.104;-2.094;2023-07-29T09:05:22;97039.19;;;16.07;100.00
27334;BME280;14817;57.104;-2.094;2023-07-29T09:07:49;97003.53;;;16.10;100.00
27334;BME280;14817;57.104;-2.094;2023-07-29T09:10:24;96985.81;;;15.84;100.00
27334;BME280;14817;57.104;-2.094;2023-07-29T09:12:52;96949.50;;;16.21;100.00
27334;BME280;14817;57.104;-2.094;2023-07-29T09:15:26;96934.06;;;16.31;100.00
27334;BME280;14817;57.104;-2.094;2023-07-29T09:17:53;96920.41;;;16.62;100.00
27334;BME280;14817;57.104;-2.094;2023-07-29T09:20:28;96916.75;;;16.82;100.00
27334;BME280;14817;57.104;-2.094;2023-07-29T09:22:57;96916.63;;;16.98;100.00
27334;BME280;14817;57.104;-2.094;2023-07-29T09:25:28;96942.75;;;16.73;100.00
27334;BME280;14817;57.104;-2.094;2023-07-29T09:27:58;96932.41;;;16.85;100.00
27334;BME280;14817;57.104;-2.094;2023-07-29T09:30:25;96936.34;;;17.03;100.00
27334;BME280;14817;57.104;-2.094;2023-07-29T09:32:58;96952.78;;;17.07;100.00
27334;BME280;14817;57.104;-2.094;2023-07-29T09:35:25;96959.38;;;16.96;100.00
27334;BME280;14817;57.104;-2.094;2023-07-29T09:37:52;96967.81;;;17.23;100.00
27334;BME280;14817;57.104;-2.094;2023-07-29T09:40:19;96981.25;;;17.33;100.00
27334;BME280;14817;57.104;-2.094;2023-07-29T09:42:50;97009.88;;;17.40;100.00
27334;BME280;14817;57.104;-2.094;2023-07-29T09:45:21;97036.09;;;17.05;100.00
27334;BME280;14817;57.104;-2.094;2023-07-29T09:47:48;97050.19;;;16.97;100.00
27334;BME280;14817;57.104;-2.094;2023-07-29T09:50:15;97043.00;;;17.21;100.00
27334;BME280;14817;57.104;-2.094;2023-07-29T09:52:43;97047.69;;;17.45;100.00
27334;BME280;14817;57.104;-2.094;2023-07-29T09:55:12;97059.09;;;17.42;100.00
27334;BME280;14817;57.104;-2.094;2023-07-29T09:57:42;97095.31;;;17.41;100.00
27334;BME280;14817;57.104;-2.094;2023-07-29T10:00:12;97146.13;;;17.49;100.00
27334;BME280;14817;57.104;-2.094;2023-07-29T10:02:40;97213.63;;;17.74;100.00
27334;BME280;14817;57.104;-2.094;2023-07-29T10:05:08;97297.50;;;17.85;100.00
27334;BME280;14817;57.104;-2.094;2023-07-29T10:07:38;97423.91;;;17.89;100.00
27334;BME280;14817;57.104;-2.094;2023-07-29T10:10:06;97482.56;;;18.20;100.00
27334;BME280;14817;57.104;-2.094;2023-07-29T10:12:34;97538.31;;;18.36;100.00
27334;BME280;14817;57.104;-2.094;2023-07-29T10:15:03;97542.81;;;18.66;100.00
27334;BME280;14817;57.104;-2.094;2023-07-29T10:17:30;97543.59;;;18.72;100.00
27334;BME280;14817;57.104;-2.094;2023-07-29T10:19:57;97549.06;;;18.62;100.00
27334;BME280;14817;57.104;-2.094;2023-07-29T10:22:27;97553.28;;;18.93;100.00
27334;BME280;14817;57.104;-2.094;2023-07-29T10:24:56;97547.97;;;19.17;100.00
27334;BME280;14817;57.104;-2.094;2023-07-29T10:27:25;97543.00;;;19.30;100.00
27334;BME280;14817;57.104;-2.094;2023-07-29T10:29:54;97542.69;;;19.71;100.00
27334;BME280;14817;57.104;-2.094;2023-07-29T10:32:23;97545.59;;;19.45;100.00
27334;BME280;14817;57.104;-2.094;2023-07-29T10:34:51;97556.91;;;19.18;100.00
27334;BME280;14817;57.104;-2.094;2023-07-29T10:37:18;97557.47;;;19.15;100.00
27334;BME280;14817;57.104;-2.094;2023-07-29T10:39:52;97565.50;;;18.91;100.00
27334;BME280;14817;57.104;-2.094;2023-07-29T10:42:19;97570.41;;;18.84;100.00
27334;BME280;14817;57.104;-2.094;2023-07-29T10:44:50;97565.94;;;18.48;100.00
27334;BME280;14817;57.104;-2.094;2023-07-29T10:49:45;97565.19;;;18.22;100.00
27334;BME280;14817;57.104;-2.094;2023-07-29T10:52:13;97558.94;;;18.32;100.00
27334;BME280;14817;57.104;-2.094;2023-07-29T10:54:43;97546.50;;;18.21;100.00
27334;BME280;14817;57.104;-2.094;2023-07-29T10:59:56;97553.28;;;18.13;100.00
27334;BME280;14817;57.104;-2.094;2023-07-29T11:02:30;97541.63;;;18.17;100.00
27334;BME280;14817;57.104;-2.094;2023-07-29T11:04:57;97532.84;;;18.51;100.00
27334;BME280;14817;57.104;-2.094;2023-07-29T11:07:25;97542.03;;;18.55;100.00
27334;BME280;14817;57.104;-2.094;2023-07-29T11:10:03;97540.09;;;18.66;100.00
27334;BME280;14817;57.104;-2.094;2023-07-29T11:12:37;97549.56;;;18.74;100.00
27334;BME280;14817;57.104;-2.094;2023-07-29T11:20:12;97555.78;;;19.58;100.00
27334;BME280;14817;57.104;-2.094;2023-07-29T11:22:40;97565.06;;;19.57;100.00
27334;BME280;14817;57.104;-2.094;2023-07-29T11:25:07;97575.47;;;19.79;100.00
27334;BME280;14817;57.104;-2.094;2023-07-29T11:27:35;97571.78;;;19.99;100.00
27334;BME280;14817;57.104;-2.094;2023-07-29T11:30:03;97555.22;;;20.92;100.00
27334;BME280;14817;57.104;-2.094;2023-07-29T11:32:32;97282.97;;;20.89;100.00
27334;BME280;14817;57.104;-2.094;2023-07-29T11:35:03;97868.56;;;20.70;100.00
27334;BME280;14817;57.104;-2.094;2023-07-29T11:37:30;97931.47;;;20.48;100.00
27334;BME280;14817;57.104;-2.094;2023-07-29T11:39:57;97937.84;;;20.83;100.00
27334;BME280;14817;57.104;-2.094;2023-07-29T11:42:24;97949.06;;;21.11;100.00
27334;BME280;14817;57.104;-2.094;2023-07-29T11:44:52;97958.66;;;21.32;100.00
27334;BME280;14817;57.104;-2.094;2023-07-29T11:47:19;97967.00;;;21.12;100.00
27334;BME280;14817;57.104;-2.094;2023-07-29T11:49:45;97983.19;;;20.43;100.00
27334;BME280;14817;57.104;-2.094;2023-07-29T11:52:12;97979.00;;;19.96;100.00
27334;BME280;14817;57.104;-2.094;2023-07-29T11:54:39;97970.63;;;19.82;100.00
27334;BME280;14817;57.104;-2.094;2023-07-29T11:57:06;97966.88;;;19.22;100.00
27334;BME280;14817;57.104;-2.094;2023-07-29T11:59:34;97949.75;;;19.67;100.00
27334;BME280;14817;57.104;-2.094;2023-07-29T12:02:01;97955.41;;;20.51;100.00
27334;BME280;14817;57.104;-2.094;2023-07-29T12:04:32;97988.84;;;21.01;100.00
27334;BME280;14817;57.104;-2.094;2023-07-29T12:06:59;98031.63;;;20.91;100.00
27334;BME280;14817;57.104;-2.094;2023-07-29T12:09:27;98051.63;;;20.66;100.00
27334;BME280;14817;57.104;-2.094;2023-07-29T12:11:54;98072.25;;;20.77;100.00
27334;BME280;14817;57.104;-2.094;2023-07-29T12:14:21;98087.00;;;20.60;100.00
27334;BME280;14817;57.104;-2.094;2023-07-29T12:16:48;98092.97;;;20.52;100.00
27334;BME280;14817;57.104;-2.094;2023-07-29T12:19:15;98098.94;;;20.65;100.00
27334;BME280;14817;57.104;-2.094;2023-07-29T12:21:42;98115.66;;;19.96;100.00
27334;BME280;14817;57.104;-2.094;2023-07-29T12:24:09;98115.38;;;20.03;100.00
27334;BME280;14817;57.104;-2.094;2023-07-29T12:26:35;98125.69;;;20.01;100.00
27334;BME280;14817;57.104;-2.094;2023-07-29T12:29:16;98121.66;;;19.93;100.00
27334;BME280;14817;57.104;-2.094;2023-07-29T12:31:43;98132.19;;;19.59;100.00
27334;BME280;14817;57.104;-2.094;2023-07-29T12:34:09;98112.66;;;19.57;100.00
27334;BME280;14817;57.104;-2.094;2023-07-29T12:36:45;98124.56;;;19.41;100.00
27334;BME280;14817;57.104;-2.094;2023-07-29T12:39:23;98129.44;;;19.44;100.00
27334;BME280;14817;57.104;-2.094;2023-07-29T12:41:51;98110.91;;;19.05;100.00
27334;BME280;14817;57.104;-2.094;2023-07-29T12:44:18;98094.72;;;19.56;100.00
27334;BME280;14817;57.104;-2.094;2023-07-29T12:46:45;98091.19;;;19.50;100.00
27334;BME280;14817;57.104;-2.094;2023-07-29T12:49:11;98100.44;;;19.75;100.00
27334;BME280;14817;57.104;-2.094;2023-07-29T12:51:38;98090.94;;;20.08;100.00
27334;BME280;14817;57.104;-2.094;2023-07-29T12:54:05;98125.72;;;20.06;100.00
27334;BME280;14817;57.104;-2.094;2023-07-29T12:56:32;98142.28;;;19.94;100.00
27334;BME280;14817;57.104;-2.094;2023-07-29T12:59:00;98136.31;;;19.92;100.00